createdAt,value
2023-05-21T04:47:36.078Z,4.03
2023-05-21T04:52:40.389Z,4.00
2023-05-21T04:57:43.181Z,3.93
2023-05-21T05:02:46.400Z,3.63
2023-05-21T05:07:49.347Z,3.87
2023-05-21T05:12:52.411Z,3.90
2023-05-21T05:17:56.670Z,3.73
2023-05-21T05:22:59.535Z,3.50
2023-05-21T05:28:02.343Z,3.90
2023-05-21T05:33:05.160Z,3.40
2023-05-21T05:38:09.044Z,3.10
2023-05-21T05:43:11.951Z,3.40
2023-05-21T05:48:14.811Z,3.90
2023-05-21T05:53:17.590Z,4.07
2023-05-21T05:58:20.509Z,3.80
2023-05-21T06:03:23.484Z,3.80
2023-05-21T06:08:26.749Z,3.60
2023-05-21T06:13:29.655Z,3.80
2023-05-21T06:18:32.489Z,3.13
2023-05-21T06:23:37.703Z,3.13
2023-05-21T06:28:40.531Z,2.70
2023-05-21T06:33:43.491Z,3.30
2023-05-21T06:38:46.864Z,3.27
2023-05-21T06:43:49.731Z,2.40
2023-05-21T06:48:52.540Z,3.47
2023-05-21T06:53:55.439Z,3.03
2023-05-21T06:58:59.346Z,3.23
2023-05-21T07:04:03.385Z,3.43
2023-05-21T07:09:06.405Z,3.57
2023-05-21T07:14:09.732Z,1.70
2023-05-21T07:19:12.581Z,2.67
2023-05-21T07:24:15.651Z,2.47
2023-05-21T07:29:18.561Z,3.00
2023-05-21T07:34:21.573Z,1.35
2023-05-21T07:39:24.379Z,1.70
2023-05-21T07:44:27.194Z,1.70
2023-05-21T07:49:30.020Z,2.20
2023-05-21T07:54:32.872Z,2.35
2023-05-21T07:59:35.658Z,2.35
2023-05-21T08:04:40.936Z,1.80
2023-05-21T08:09:44.218Z,1.98
2023-05-21T08:14:46.998Z,2.22
2023-05-21T08:19:49.761Z,2.28
2023-05-21T08:24:52.602Z,2.40
2023-05-21T08:29:55.385Z,2.10
2023-05-21T08:34:58.258Z,1.98
2023-05-21T08:40:01.091Z,1.80
2023-05-21T08:45:09.174Z,1.85
2023-05-21T08:50:16.611Z,2.08
2023-05-21T08:55:19.556Z,2.30
2023-05-21T09:00:22.441Z,1.80
2023-05-21T09:05:26.019Z,1.98
2023-05-21T09:10:36.692Z,2.15
2023-05-21T09:15:39.878Z,1.70
2023-05-21T09:20:44.115Z,1.90
2023-05-21T09:25:48.175Z,1.70
2023-05-21T09:30:54.405Z,1.75
2023-05-21T09:35:57.538Z,1.80
2023-05-21T09:41:04.366Z,1.40
2023-05-21T09:46:07.217Z,1.50
2023-05-21T09:51:14.893Z,1.80
2023-05-21T09:56:30.726Z,2.05
2023-05-21T10:01:34.396Z,1.80
2023-05-21T10:06:48.162Z,2.03
2023-05-21T10:11:55.125Z,1.90
2023-05-21T10:16:58.249Z,1.73
2023-05-21T10:22:01.727Z,2.00
2023-05-21T10:27:04.857Z,1.55
2023-05-21T10:32:08.144Z,1.60
2023-05-21T10:37:13.639Z,1.83
2023-05-21T10:43:01.299Z,1.70
2023-05-21T10:48:17.677Z,1.73
2023-05-21T10:53:54.541Z,1.63
2023-05-21T10:59:04.192Z,1.50
2023-05-21T11:04:07.289Z,2.13
2023-05-21T11:09:14.618Z,1.70
2023-05-21T11:14:40.807Z,1.52
2023-05-21T11:19:48.016Z,1.60
2023-05-21T11:24:51.964Z,1.75
2023-05-21T11:29:56.492Z,1.48
2023-05-21T11:35:03.597Z,1.92
2023-05-21T11:40:32.842Z,1.80
2023-05-21T11:45:35.768Z,1.80
2023-05-21T11:50:39.347Z,1.83
2023-05-21T11:55:43.808Z,1.60
2023-05-21T12:00:46.923Z,1.40
2023-05-21T12:05:50.136Z,1.73
2023-05-21T12:11:00.281Z,1.67
2023-05-21T12:16:05.893Z,1.77
2023-05-21T12:21:11.692Z,2.10
2023-05-21T12:26:15.418Z,1.63
2023-05-21T12:31:18.471Z,1.70
2023-05-21T12:36:28.052Z,1.73
2023-05-21T12:41:30.999Z,1.88
2023-05-21T12:46:33.898Z,1.80
2023-05-21T12:51:40.689Z,1.85
2023-05-21T12:56:46.844Z,1.50
2023-05-21T13:01:49.826Z,2.20
2023-05-21T13:06:52.953Z,1.40
2023-05-21T13:11:55.797Z,2.13
2023-05-21T13:16:59.051Z,1.40
2023-05-21T13:22:01.950Z,1.88
2023-05-21T13:27:04.788Z,2.17
2023-05-21T13:32:07.887Z,2.03
2023-05-21T13:37:10.734Z,1.60
2023-05-21T13:42:13.664Z,1.95
2023-05-21T13:47:16.614Z,1.70
2023-05-21T13:52:21.435Z,1.90
2023-05-21T13:57:26.823Z,1.40
2023-05-21T14:02:29.896Z,2.15
2023-05-21T14:07:32.997Z,1.40
2023-05-21T14:12:36.493Z,1.80
2023-05-21T14:17:40.656Z,1.92
2023-05-21T14:22:43.683Z,1.95
2023-05-21T14:27:46.545Z,1.50
2023-05-21T14:32:49.386Z,1.70
2023-05-21T14:37:52.719Z,1.73
2023-05-21T14:42:56.195Z,2.13
2023-05-21T14:47:59.137Z,1.70
2023-05-21T14:53:09.666Z,2.10
2023-05-21T14:58:12.759Z,1.67
2023-05-21T15:03:16.336Z,1.88
2023-05-21T15:08:19.352Z,1.75
2023-05-21T15:13:22.172Z,1.92
2023-05-21T15:18:25.059Z,2.05
2023-05-21T15:23:28.030Z,2.08
2023-05-21T15:28:30.938Z,1.85
2023-05-21T15:33:33.876Z,2.28
2023-05-21T15:38:36.822Z,2.00
2023-05-21T15:43:39.677Z,2.20
2023-05-21T15:48:42.598Z,2.00
2023-05-21T15:53:45.465Z,1.80
2023-05-21T15:58:48.436Z,1.98
2023-05-21T16:03:51.328Z,1.98
2023-05-21T16:08:54.173Z,1.63
2023-05-21T16:13:57.108Z,2.20
2023-05-21T16:19:01.399Z,1.90
2023-05-21T16:24:04.488Z,1.92
2023-05-21T16:29:07.432Z,1.95
2023-05-21T16:34:10.243Z,1.90
2023-05-21T16:39:13.085Z,1.83
2023-05-21T16:44:15.956Z,1.70
2023-05-21T16:49:19.275Z,1.83
2023-05-21T16:54:22.110Z,2.08
2023-05-21T16:59:24.951Z,1.75
2023-05-21T17:04:27.806Z,1.73
2023-05-21T17:09:30.806Z,1.60
2023-05-21T17:14:34.892Z,1.92
2023-05-21T17:19:38.957Z,1.90
2023-05-21T17:24:41.860Z,1.52
2023-05-21T17:29:44.682Z,2.15
2023-05-21T17:34:47.582Z,1.70
2023-05-21T17:39:50.469Z,1.77
2023-05-21T17:44:54.482Z,1.60
2023-05-21T17:49:57.349Z,2.17
2023-05-21T17:55:01.004Z,1.73
2023-05-21T18:00:06.977Z,1.75
2023-05-21T18:05:10.131Z,1.77
2023-05-21T18:10:15.130Z,1.92
2023-05-21T18:15:17.963Z,2.03
2023-05-21T18:20:20.764Z,1.88
2023-05-21T18:25:23.554Z,1.90
2023-05-21T18:30:26.374Z,2.47
2023-05-21T18:35:31.049Z,2.20
2023-05-21T18:40:34.016Z,1.90
2023-05-21T18:45:36.936Z,1.80
2023-05-21T18:50:39.918Z,1.83
2023-05-21T18:55:42.878Z,2.17
2023-05-21T19:00:45.827Z,2.05
2023-05-21T19:05:48.697Z,2.38
2023-05-21T19:10:52.970Z,2.00
2023-05-21T19:15:57.373Z,2.20
2023-05-21T19:21:00.841Z,1.92
2023-05-21T19:26:04.457Z,1.73
2023-05-21T19:31:09.109Z,1.70
2023-05-21T19:36:12.065Z,1.80
2023-05-21T19:41:16.141Z,1.73
2023-05-21T19:46:20.501Z,1.75
2023-05-21T19:51:23.690Z,2.17
2023-05-21T19:56:26.733Z,2.35
2023-05-21T20:01:33.157Z,1.95
2023-05-21T20:06:36.210Z,1.92
2023-05-21T20:11:39.117Z,2.10
2023-05-21T20:16:42.549Z,2.00
2023-05-21T20:21:45.580Z,1.97
2023-05-21T20:26:48.408Z,2.13
2023-05-21T20:31:51.196Z,1.90
2023-05-21T20:36:58.330Z,2.20
2023-05-21T20:42:02.202Z,1.87
2023-05-21T20:47:05.445Z,1.90
2023-05-21T20:52:08.643Z,1.83
2023-05-21T20:57:11.587Z,2.13
2023-05-21T21:02:15.730Z,2.10
2023-05-21T21:07:19.094Z,1.90
2023-05-21T21:12:26.433Z,2.17
2023-05-21T21:17:30.047Z,1.80
2023-05-21T21:22:33.210Z,1.73
2023-05-21T21:27:36.242Z,2.30
2023-05-21T21:32:39.095Z,1.97
2023-05-21T21:37:42.110Z,2.80
2023-05-21T21:42:44.950Z,1.87
2023-05-21T21:47:47.775Z,1.80
2023-05-21T21:52:50.610Z,1.90
2023-05-21T21:57:53.451Z,1.87
2023-05-21T22:02:56.867Z,1.70
2023-05-21T22:07:59.845Z,2.00
2023-05-21T22:13:02.726Z,2.00
2023-05-21T22:18:05.646Z,2.20
2023-05-21T22:23:08.527Z,2.00
2023-05-21T22:28:11.326Z,2.03
2023-05-21T22:33:14.218Z,1.73
2023-05-21T22:38:18.028Z,2.00
2023-05-21T22:43:20.896Z,2.20
2023-05-21T22:48:23.702Z,2.10
2023-05-21T22:53:26.668Z,1.77
2023-05-21T22:58:29.560Z,1.70
2023-05-21T23:03:32.386Z,1.80
2023-05-21T23:08:35.226Z,1.50
2023-05-21T23:13:38.081Z,1.87
2023-05-21T23:18:40.995Z,1.83
2023-05-21T23:23:43.845Z,2.07
2023-05-21T23:28:46.662Z,1.60
2023-05-21T23:33:50.192Z,1.73
2023-05-21T23:38:53.008Z,2.17
2023-05-21T23:43:56.065Z,1.73
